Time;durP1;ratioP1;P1;durP2;ratioP2;P2;SDS_P1;SDS_P2;PMS_P1;PMS_P2;Temp;Humidity;BMP_temperature;BMP_pressure;BME280_temperature;BME280_humidity;BME280_pressure;Samples;Min_cycle;Max_cycle;Signal;HPM_P1;HPM_P2
2023/10/07 00:00:59;;;;;;;6.77;3.30;;;;;;;16.82;55.00;101487.38;5011562;28;96654;-78
2023/10/07 00:03:25;;;;;;;8.47;2.70;;;;;;;16.83;54.94;101491.69;5022408;27;96823;-78
2023/10/07 00:06:00;;;;;;;4.00;2.80;;;;;;;16.82;55.00;101487.38;5006494;28;99619;-77
2023/10/07 00:08:27;;;;;;;3.73;2.83;;;;;;;16.81;55.06;101495.03;5024783;27;100372;-77
2023/10/07 00:10:53;;;;;;;3.53;2.70;;;;;;;16.79;55.06;101489.22;5007076;28;97222;-78
2023/10/07 00:13:23;;;;;;;4.20;3.10;;;;;;;16.78;55.15;101490.53;5007376;28;97126;-77
2023/10/07 00:15:49;;;;;;;3.80;2.60;;;;;;;16.79;54.99;101505.97;5004224;28;100485;-78
2023/10/07 00:18:16;;;;;;;3.10;2.37;;;;;;;16.77;55.18;101494.59;5006785;28;97132;-76
2023/10/07 00:20:45;;;;;;;5.93;2.97;;;;;;;16.76;55.25;101497.94;5008936;28;99836;-77
2023/10/07 00:23:15;;;;;;;6.47;3.50;;;;;;;16.74;55.20;101492.91;5006376;28;97199;-78
2023/10/07 00:25:41;;;;;;;3.97;2.80;;;;;;;16.71;55.16;101484.81;5021743;27;101037;-78
2023/10/07 00:28:17;;;;;;;6.63;3.07;;;;;;;16.71;55.30;101488.38;5007182;28;97230;-77
2023/10/07 00:30:46;;;;;;;5.43;3.03;;;;;;;16.70;55.33;101486.84;5010943;28;96890;-77
2023/10/07 00:33:13;;;;;;;7.30;3.53;;;;;;;16.70;55.35;101489.66;5007391;28;100196;-77
2023/10/07 00:35:39;;;;;;;6.60;3.00;;;;;;;16.68;55.41;101481.78;5021862;27;100354;-77
2023/10/07 00:38:04;;;;;;;4.03;2.90;;;;;;;16.67;55.46;101494.28;5005877;28;100202;-77
2023/10/07 00:42:56;;;;;;;3.70;2.80;;;;;;;16.65;55.33;101470.94;5006023;28;96854;-76
2023/10/07 00:45:24;;;;;;;6.10;2.40;;;;;;;16.66;55.41;101487.16;5004289;28;96825;-77
2023/10/07 00:47:52;;;;;;;7.70;2.97;;;;;;;16.65;55.56;101490.50;5003765;28;99149;-77
2023/10/07 00:50:20;;;;;;;5.73;2.97;;;;;;;16.62;55.41;101488.78;5005024;28;97506;-78
2023/10/07 00:55:27;;;;;;;4.80;3.23;;;;;;;16.59;55.60;101487.81;5003993;28;98616;-78
2023/10/07 00:58:06;;;;;;;4.03;2.60;;;;;;;16.57;55.72;101486.88;5005629;28;100906;-78
2023/10/07 01:04:01;;;;;;;5.53;3.10;;;;;;;16.60;55.80;101491.38;5004969;28;97256;-77
2023/10/07 01:08:29;;;;;;;4.90;2.57;;;;;;;16.57;55.75;101492.47;5005128;28;96736;-78
2023/10/07 01:11:06;;;;;;;3.70;2.83;;;;;;;16.56;55.80;101496.53;5010334;28;97665;-78
2023/10/07 01:13:33;;;;;;;4.93;2.57;;;;;;;16.58;55.78;101510.72;5006673;28;97238;-77
2023/10/07 01:15:59;;;;;;;4.00;2.60;;;;;;;16.58;55.91;101505.13;5007953;28;97487;-77
2023/10/07 01:18:24;;;;;;;12.33;3.50;;;;;;;16.56;55.81;101496.53;5008384;28;99270;-78
2023/10/07 01:23:19;;;;;;;2.83;2.53;;;;;;;16.56;56.08;101507.72;5006391;28;97018;-77
2023/10/07 01:25:50;;;;;;;3.60;2.70;;;;;;;16.57;55.91;101503.63;4998274;28;100513;-77
2023/10/07 01:28:15;;;;;;;4.97;2.83;;;;;;;16.59;56.03;101498.25;5010568;28;100342;-77
2023/10/07 01:30:59;;;;;;;4.50;2.90;;;;;;;16.59;56.05;101503.84;4996948;28;96714;-79
2023/10/07 01:33:34;;;;;;;8.37;2.93;;;;;;;16.58;56.06;101507.91;5008124;28;97009;-78
2023/10/07 01:36:08;;;;;;;3.50;2.60;;;;;;;16.58;56.02;101489.13;5004576;27;97362;-78
2023/10/07 01:38:33;;;;;;;4.77;3.03;;;;;;;16.57;56.15;101475.69;5005533;28;97753;-78
2023/10/07 01:41:05;;;;;;;4.73;3.00;;;;;;;16.58;56.14;101477.94;5002700;28;97209;-78
2023/10/07 01:43:31;;;;;;;3.90;2.83;;;;;;;16.57;56.11;101476.44;5005690;28;99474;-77
2023/10/07 01:45:57;;;;;;;5.07;2.90;;;;;;;16.57;56.17;101470.84;5004533;28;99515;-78
2023/10/07 01:48:23;;;;;;;5.23;2.63;;;;;;;16.57;56.14;101484.81;5002330;28;98961;-78
2023/10/07 01:50:50;;;;;;;3.43;2.50;;;;;;;16.56;56.14;101476.97;5004889;28;97024;-78
2023/10/07 01:53:15;;;;;;;4.97;2.70;;;;;;;16.55;56.25;101472.69;5006516;28;96717;-78
2023/10/07 01:55:45;;;;;;;2.80;2.53;;;;;;;16.58;56.30;101482.78;5003197;28;101344;-78
2023/10/07 01:58:13;;;;;;;4.77;2.93;;;;;;;16.56;56.28;101479.78;5003378;28;99001;-77
2023/10/07 02:00:46;;;;;;;6.63;3.07;;;;;;;16.56;56.27;101477.72;5006047;27;97175;-78
2023/10/07 02:03:13;;;;;;;2.97;2.73;;;;;;;16.56;56.31;101485.34;5004625;28;97104;-78
2023/10/07 02:05:47;;;;;;;4.70;3.03;;;;;;;16.55;56.23;101476.22;5004415;28;97949;-78
2023/10/07 02:08:18;;;;;;;6.87;3.50;;;;;;;16.55;56.26;101472.69;5008137;28;97611;-78
2023/10/07 02:10:46;;;;;;;4.30;3.07;;;;;;;16.55;56.59;101467.84;4997333;28;97210;-78
2023/10/07 02:13:19;;;;;;;4.30;2.53;;;;;;;16.54;56.46;101466.34;5005931;28;97155;-77
2023/10/07 02:15:49;;;;;;;4.77;2.90;;;;;;;16.57;56.42;101470.09;5004675;28;97624;-77
2023/10/07 02:18:17;;;;;;;5.37;2.63;;;;;;;16.56;56.59;101474.19;5020877;27;98326;-76
2023/10/07 02:21:07;;;;;;;4.63;2.87;;;;;;;16.57;56.72;101472.91;5004154;28;97058;-77
2023/10/07 02:23:37;;;;;;;4.50;2.93;;;;;;;16.58;56.53;101480.72;5004745;28;96808;-76
2023/10/07 02:26:07;;;;;;;4.97;2.77;;;;;;;16.58;56.64;101454.84;5006242;28;97329;-78
2023/10/07 02:28:35;;;;;;;11.67;3.60;;;;;;;16.59;56.47;101465.47;5002380;28;99355;-77
2023/10/07 02:31:08;;;;;;;6.90;3.03;;;;;;;16.58;56.63;101454.84;4997056;28;96733;-77
2023/10/07 02:33:41;;;;;;;4.07;2.80;;;;;;;16.58;56.53;101452.03;5003097;28;97361;-78
2023/10/07 02:36:12;;;;;;;3.80;2.87;;;;;;;16.59;56.60;101442.38;5004931;28;97999;-78
2023/10/07 02:38:38;;;;;;;5.43;2.87;;;;;;;16.62;56.63;101444.06;5005010;28;100594;-77
2023/10/07 02:41:15;;;;;;;5.13;2.67;;;;;;;16.61;56.63;101451.72;5006844;28;97068;-77
2023/10/07 02:43:43;;;;;;;4.57;3.10;;;;;;;16.59;56.76;101434.72;5005514;28;99526;-77
2023/10/07 02:46:08;;;;;;;4.50;2.83;;;;;;;16.58;56.99;101455.59;5007691;28;101494;-77
2023/10/07 02:48:38;;;;;;;3.67;2.73;;;;;;;16.54;57.05;101444.00;5004773;28;99299;-78
2023/10/07 02:51:06;;;;;;;3.27;2.97;;;;;;;16.54;57.10;101444.00;5009702;28;97066;-77
2023/10/07 02:53:35;;;;;;;5.40;3.10;;;;;;;16.53;57.12;101450.09;5006943;28;96963;-77
2023/10/07 02:56:03;;;;;;;4.33;2.60;;;;;;;16.50;57.35;101448.41;5007433;28;99575;-77
2023/10/07 02:58:41;;;;;;;4.27;3.00;;;;;;;16.51;57.16;101439.47;5025970;27;101048;-77
2023/10/07 03:01:16;;;;;;;5.80;3.20;;;;;;;16.49;57.28;101444.84;5008885;28;97156;-78
2023/10/07 03:03:48;;;;;;;5.57;3.20;;;;;;;16.51;57.29;101436.69;5005751;28;99700;-78
2023/10/07 03:06:17;;;;;;;6.33;3.23;;;;;;;16.50;57.21;101431.66;5007999;28;100915;-78
2023/10/07 03:11:12;;;;;;;5.00;3.53;;;;;;;16.46;57.28;101440.34;5008981;28;97786;-77
2023/10/07 03:13:39;;;;;;;5.47;3.23;;;;;;;16.46;57.60;101443.13;5009700;28;97480;-77
2023/10/07 03:16:28;;;;;;;5.60;3.40;;;;;;;16.40;57.97;101445.28;5009693;28;96819;-76
2023/10/07 03:24:41;;;;;;;6.37;3.40;;;;;;;16.19;59.32;101440.91;5006549;28;97232;-75
2023/10/07 03:27:10;;;;;;;3.10;2.80;;;;;;;16.16;58.60;101437.13;4993579;28;98279;-76
2023/10/07 03:29:37;;;;;;;5.13;3.60;;;;;;;16.14;58.68;101438.94;5006788;28;98502;-77
2023/10/07 03:32:12;;;;;;;3.70;2.87;;;;;;;16.07;59.04;101443.13;5007457;28;97989;-76
2023/10/07 03:34:43;;;;;;;4.80;3.13;;;;;;;16.04;59.07;101441.44;4997224;28;97167;-77
2023/10/07 03:42:17;;;;;;;4.93;2.90;;;;;;;15.93;59.54;101439.59;5009636;28;97364;-77
2023/10/07 03:44:43;;;;;;;6.37;4.13;;;;;;;15.93;59.55;101447.97;5005504;28;96954;-77
2023/10/07 03:47:10;;;;;;;3.50;3.17;;;;;;;15.91;59.54;101450.56;5003432;28;97268;-77
2023/10/07 03:49:39;;;;;;;4.90;3.03;;;;;;;15.86;59.76;101445.81;5007041;28;97150;-77
2023/10/07 03:52:12;;;;;;;11.77;3.50;;;;;;;15.81;59.97;101441.03;5007004;28;97020;-78
2023/10/07 03:54:40;;;;;;;8.40;3.60;;;;;;;15.78;59.95;101449.75;5008335;28;96999;-78
2023/10/07 03:57:07;;;;;;;7.20;3.93;;;;;;;15.77;60.08;101442.66;5004767;28;100214;-77
2023/10/07 03:59:34;;;;;;;5.30;4.10;;;;;;;15.71;60.37;101442.00;5007676;28;97270;-77
2023/10/07 04:02:29;;;;;;;5.00;3.97;;;;;;;15.67;60.57;101444.34;5008295;28;96932;-77
2023/10/07 04:04:55;;;;;;;5.47;3.70;;;;;;;15.68;60.71;101449.38;5007253;28;97537;-77
2023/10/07 04:07:23;;;;;;;4.80;3.90;;;;;;;15.66;60.73;101446.38;5008288;28;97450;-77
2023/10/07 04:09:49;;;;;;;5.97;3.60;;;;;;;15.65;60.87;101449.72;5009325;28;107810;-77
2023/10/07 04:12:15;;;;;;;4.73;3.60;;;;;;;15.60;61.11;101453.34;5007065;28;97262;-77
2023/10/07 04:14:42;;;;;;;6.73;4.00;;;;;;;15.55;61.12;101431.88;5009509;28;98167;-77
2023/10/07 04:17:14;;;;;;;11.57;4.60;;;;;;;15.57;61.26;101434.88;5005851;28;100842;-76
2023/10/07 04:19:42;;;;;;;4.53;3.63;;;;;;;15.56;61.26;101436.94;5006783;28;97233;-76
2023/10/07 04:22:08;;;;;;;3.27;3.07;;;;;;;15.57;61.31;101426.50;5007930;27;97712;-77
2023/10/07 04:24:38;;;;;;;6.53;3.67;;;;;;;15.54;61.51;101430.38;5005857;28;96855;-76
2023/10/07 04:27:03;;;;;;;5.27;3.57;;;;;;;15.52;61.50;101428.13;5006995;28;97421;-77
2023/10/07 04:29:32;;;;;;;7.23;4.13;;;;;;;15.53;61.82;101432.41;5006732;28;96746;-77
2023/10/07 04:32:05;;;;;;;5.07;3.80;;;;;;;15.53;61.75;101431.66;5009743;28;97498;-77
2023/10/07 04:34:35;;;;;;;10.50;4.00;;;;;;;15.52;61.96;101442.06;5008277;28;97025;-77
2023/10/07 04:39:28;;;;;;;4.17;3.73;;;;;;;15.54;62.00;101438.75;5009380;28;97430;-77
2023/10/07 04:41:57;;;;;;;3.87;3.47;;;;;;;15.54;61.81;101433.91;5007228;28;96736;-77
2023/10/07 04:45:15;;;;;;;11.53;4.47;;;;;;;15.56;61.97;101447.31;5008665;28;97149;-77
2023/10/07 04:53:02;;;;;;;6.60;4.30;;;;;;;15.53;62.19;101442.81;5005296;28;96942;-76
2023/10/07 04:55:26;;;;;;;6.00;3.93;;;;;;;15.51;62.27;101437.75;5007301;28;97273;-77
2023/10/07 05:03:08;;;;;;;6.83;4.97;;;;;;;15.56;62.84;101441.75;5005514;28;97513;-77
2023/10/07 05:05:34;;;;;;;7.77;4.90;;;;;;;15.54;62.46;101436.72;5003630;28;97420;-77
2023/10/07 05:08:08;;;;;;;7.27;4.40;;;;;;;15.52;62.58;101430.91;5007036;28;97212;-77
2023/10/07 05:10:43;;;;;;;7.80;5.37;;;;;;;15.51;63.19;101437.75;5001635;28;101693;-77
2023/10/07 05:13:10;;;;;;;7.20;5.50;;;;;;;15.51;62.64;101426.59;5003435;28;96821;-76
2023/10/07 05:15:38;;;;;;;6.90;4.73;;;;;;;15.54;62.68;101430.38;5005326;28;97143;-76
2023/10/07 05:18:05;;;;;;;5.10;4.37;;;;;;;15.54;62.52;101428.34;5007130;28;96801;-77
2023/10/07 05:20:33;;;;;;;8.90;5.43;;;;;;;15.54;62.57;101425.56;5006821;28;97819;-77
2023/10/07 05:23:03;;;;;;;8.67;4.77;;;;;;;15.51;62.70;101432.19;5006027;28;97230;-77
2023/10/07 05:25:30;;;;;;;6.10;4.73;;;;;;;15.54;62.54;101419.97;5007238;28;96947;-77
2023/10/07 05:27:57;;;;;;;11.13;5.00;;;;;;;15.53;62.76;101417.69;4997793;28;99623;-78
2023/10/07 05:30:23;;;;;;;10.07;5.23;;;;;;;15.51;62.79;101423.06;5006142;27;98548;-78
2023/10/07 05:32:48;;;;;;;10.70;4.90;;;;;;;15.50;62.92;101427.88;5004611;28;97987;-76
2023/10/07 05:35:18;;;;;;;9.10;5.30;;;;;;;15.51;62.96;101429.41;5007631;28;97224;-77
2023/10/07 05:37:45;;;;;;;7.77;5.10;;;;;;;15.53;62.88;101423.28;5004002;28;100224;-76
2023/10/07 05:40:14;;;;;;;7.60;5.57;;;;;;;15.54;62.88;101438.75;5006131;28;97068;-77
2023/10/07 05:42:40;;;;;;;6.13;4.80;;;;;;;15.56;62.85;101436.94;5003878;28;96712;-76
2023/10/07 05:45:09;;;;;;;9.20;5.30;;;;;;;15.56;62.96;101431.34;5003874;28;97281;-76
2023/10/07 05:47:34;;;;;;;10.53;5.43;;;;;;;15.59;62.92;101430.28;4998116;28;100722;-77
2023/10/07 05:50:01;;;;;;;7.30;5.40;;;;;;;15.60;63.03;101420.63;5007578;28;97462;-77
2023/10/07 05:52:30;;;;;;;7.83;4.90;;;;;;;15.60;63.13;101431.03;5006584;28;97307;-77
2023/10/07 05:54:56;;;;;;;7.03;4.63;;;;;;;15.59;62.96;101421.16;5003861;28;97349;-77
2023/10/07 05:57:23;;;;;;;15.70;5.33;;;;;;;15.60;62.85;101420.63;5005667;28;99422;-78
2023/10/07 05:59:49;;;;;;;5.43;4.83;;;;;;;15.62;63.02;101414.50;5009200;28;97581;-77
2023/10/07 06:02:15;;;;;;;7.67;5.70;;;;;;;15.61;63.00;101429.75;5007899;28;97537;-78
2023/10/07 06:04:44;;;;;;;5.17;4.63;;;;;;;15.59;63.06;101435.13;5001949;28;97143;-77
2023/10/07 06:07:14;;;;;;;6.27;5.67;;;;;;;15.60;62.98;101442.94;5004685;28;97589;-77
2023/10/07 06:09:42;;;;;;;6.70;4.80;;;;;;;15.62;63.09;101428.47;5008350;28;96986;-77
2023/10/07 06:12:09;;;;;;;6.17;4.63;;;;;;;15.62;63.13;101418.06;5004917;28;97655;-77
2023/10/07 06:14:35;;;;;;;6.70;5.13;;;;;;;15.64;63.21;101428.66;5005546;28;97298;-77
2023/10/07 06:17:00;;;;;;;7.03;4.83;;;;;;;15.62;63.17;101443.16;5008350;28;96787;-76
2023/10/07 06:19:25;;;;;;;7.70;5.07;;;;;;;15.62;63.19;101428.47;5006207;27;97372;-77
2023/10/07 06:21:51;;;;;;;10.17;4.80;;;;;;;15.61;63.18;101427.69;5006698;28;97504;-76
2023/10/07 06:24:21;;;;;;;5.80;4.53;;;;;;;15.61;63.30;101418.59;5007428;28;97142;-77
2023/10/07 06:26:48;;;;;;;7.33;5.50;;;;;;;15.60;63.28;101405.91;5006592;28;97423;-76
2023/10/07 06:29:18;;;;;;;9.93;5.73;;;;;;;15.62;63.30;101415.25;5008694;27;99311;-77
2023/10/07 06:31:49;;;;;;;7.67;5.00;;;;;;;15.63;63.27;101416.75;4996978;28;97528;-77
2023/10/07 06:34:15;;;;;;;8.67;5.57;;;;;;;15.64;63.40;101418.28;5002618;28;97181;-78
2023/10/07 06:36:40;;;;;;;8.20;5.43;;;;;;;15.66;63.35;101428.88;5000857;28;97160;-77
2023/10/07 06:39:07;;;;;;;11.17;5.73;;;;;;;15.67;63.11;101428.38;5003577;28;99811;-77
2023/10/07 06:41:34;;;;;;;7.30;5.40;;;;;;;15.67;63.43;101431.16;5001527;28;97216;-76
2023/10/07 06:44:02;;;;;;;8.23;6.40;;;;;;;15.68;63.53;101427.06;5001482;28;97463;-77
2023/10/07 06:46:29;;;;;;;9.30;6.00;;;;;;;15.67;63.60;101447.91;5005081;28;97097;-77
2023/10/07 06:48:55;;;;;;;9.90;6.60;;;;;;;15.68;63.37;101432.66;5000578;28;99174;-77
2023/10/07 06:51:20;;;;;;;8.77;6.47;;;;;;;15.69;63.44;101434.16;5019276;27;97176;-77
2023/10/07 06:53:46;;;;;;;12.93;6.83;;;;;;;15.69;63.34;101450.16;5017961;27;97082;-77
2023/10/07 06:56:20;;;;;;;13.17;7.50;;;;;;;15.70;63.55;101452.41;5001391;28;100864;-77
2023/10/07 06:58:53;;;;;;;9.03;6.43;;;;;;;15.72;63.50;101468.63;5002170;28;96807;-76
2023/10/07 07:01:22;;;;;;;10.70;6.80;;;;;;;15.74;63.46;101447.25;5002755;28;97171;-78
2023/10/07 07:03:48;;;;;;;11.63;6.67;;;;;;;15.74;63.25;101455.63;5002860;28;97345;-77
2023/10/07 07:06:33;;;;;;;8.43;6.17;;;;;;;15.76;63.39;101432.78;5003446;28;97294;-78
2023/10/07 07:08:59;;;;;;;14.67;6.73;;;;;;;15.80;63.54;101441.59;5003434;28;97554;-77
2023/10/07 07:11:25;;;;;;;11.17;6.20;;;;;;;15.80;63.56;101436.78;5003181;28;97928;-77
2023/10/07 07:13:50;;;;;;;11.17;7.27;;;;;;;15.78;63.56;101441.38;5003433;28;97481;-76
2023/10/07 07:16:16;;;;;;;7.87;6.90;;;;;;;15.81;63.52;101445.88;5003941;28;113868;-76
2023/10/07 07:18:41;;;;;;;12.60;7.17;;;;;;;15.81;63.44;101434.72;4996801;28;99491;-77
2023/10/07 07:23:51;;;;;;;12.67;7.27;;;;;;;15.87;63.24;101450.09;5002633;28;97359;-77
2023/10/07 07:26:20;;;;;;;10.97;6.17;;;;;;;15.89;63.52;101447.56;5007471;28;97329;-77
2023/10/07 07:28:46;;;;;;;9.63;6.80;;;;;;;15.85;63.53;101451.94;5021136;27;98634;-77
2023/10/07 07:31:18;;;;;;;10.43;7.40;;;;;;;15.85;63.48;101455.47;5007054;28;96913;-77
2023/10/07 07:33:48;;;;;;;9.67;6.27;;;;;;;15.86;63.41;101459.78;5000395;28;97318;-78
2023/10/07 07:39:00;;;;;;;8.30;6.27;;;;;;;15.87;63.46;101444.50;5006618;28;97350;-77
2023/10/07 07:41:34;;;;;;;10.50;7.10;;;;;;;15.90;63.66;101451.06;5002909;28;97124;-78
2023/10/07 07:44:01;;;;;;;11.33;6.80;;;;;;;15.91;63.60;101458.94;5003163;28;97312;-78
2023/10/07 07:46:29;;;;;;;12.27;5.97;;;;;;;15.92;63.46;101474.38;5000013;28;100968;-77
2023/10/07 07:48:56;;;;;;;8.87;6.80;;;;;;;15.91;63.47;101475.66;5004772;28;99673;-77
2023/10/07 07:51:25;;;;;;;10.40;7.20;;;;;;;15.91;63.41;101472.88;5006656;28;97080;-78
2023/10/07 07:53:51;;;;;;;9.73;7.10;;;;;;;15.90;63.66;101467.81;5005996;28;97278;-76
2023/10/07 07:56:18;;;;;;;11.60;7.07;;;;;;;15.90;63.43;101462.22;5007269;28;96853;-77
2023/10/07 07:58:47;;;;;;;11.60;7.17;;;;;;;15.90;63.56;101488.09;5004834;28;97121;-78
2023/10/07 08:01:19;;;;;;;12.60;7.83;;;;;;;15.91;63.55;101475.66;5003611;28;97589;-77
2023/10/07 08:03:45;;;;;;;11.87;6.80;;;;;;;15.89;63.48;101469.88;5007097;27;97294;-78
2023/10/07 08:06:19;;;;;;;9.90;7.60;;;;;;;15.91;63.51;101461.72;5007144;28;97960;-77
2023/10/07 08:08:46;;;;;;;9.20;6.53;;;;;;;15.89;63.72;101458.72;5004592;28;97713;-78
2023/10/07 08:11:14;;;;;;;11.67;7.20;;;;;;;15.96;63.52;101453.78;5000783;28;97161;-78
2023/10/07 08:13:39;;;;;;;9.60;7.20;;;;;;;15.95;63.49;101472.56;5001305;28;97587;-77
2023/10/07 08:16:06;;;;;;;12.07;7.90;;;;;;;15.91;63.61;101455.38;5005075;28;104098;-78
2023/10/07 08:18:31;;;;;;;10.07;6.97;;;;;;;15.90;63.56;101456.66;5006239;28;99791;-77
2023/10/07 08:21:13;;;;;;;14.30;7.87;;;;;;;15.93;63.62;101455.59;5020189;27;97705;-78
2023/10/07 08:23:40;;;;;;;9.37;6.90;;;;;;;15.90;63.69;101471.38;5005896;28;96766;-77
2023/10/07 08:26:10;;;;;;;8.53;7.33;;;;;;;15.91;63.84;101480.50;5003916;28;99241;-77
2023/10/07 08:31:37;;;;;;;13.70;8.07;;;;;;;15.92;63.88;101460.41;5005732;28;97219;-77
2023/10/07 08:36:36;;;;;;;10.10;7.40;;;;;;;15.93;63.85;101463.97;5003975;28;97712;-78
2023/10/07 08:39:05;;;;;;;10.37;7.30;;;;;;;15.98;63.91;101440.03;5004139;28;99051;-77
2023/10/07 08:41:31;;;;;;;10.40;8.10;;;;;;;16.02;63.91;101448.84;5004236;28;97838;-76
2023/10/07 08:44:15;;;;;;;10.57;7.97;;;;;;;16.03;64.02;101441.97;5005032;28;97288;-77
2023/10/07 08:46:54;;;;;;;9.30;7.77;;;;;;;16.02;63.93;101443.25;5005419;28;98090;-77
2023/10/07 08:49:26;;;;;;;13.77;8.33;;;;;;;16.08;63.97;101443.91;5005567;28;97696;-78
2023/10/07 08:51:54;;;;;;;13.30;8.20;;;;;;;16.11;63.83;101443.59;5019357;27;97545;-77
2023/10/07 08:54:26;;;;;;;10.57;8.80;;;;;;;16.11;63.65;101440.03;5005238;28;97013;-77
2023/10/07 08:56:57;;;;;;;12.40;8.47;;;;;;;16.13;63.76;101443.03;5004078;28;97446;-77
2023/10/07 08:59:33;;;;;;;10.23;8.13;;;;;;;16.13;63.68;101448.63;5005815;28;97162;-77
2023/10/07 09:02:45;;;;;;;15.33;8.37;;;;;;;16.13;63.83;101443.03;5005070;28;97041;-78
2023/10/07 09:04:45;;;;;;;10.00;7.63;;;;;;;16.11;63.76;101442.84;4991143;28;98344;-77
2023/10/07 09:07:11;;;;;;;13.90;7.67;;;;;;;16.14;63.80;101453.66;5006173;28;97323;-78
2023/10/07 09:09:38;;;;;;;10.20;7.30;;;;;;;16.19;63.85;101446.47;5005834;27;98176;-78
2023/10/07 09:12:50;;;;;;;15.30;8.07;;;;;;;16.22;63.69;101440.59;5005998;28;97654;-77
2023/10/07 09:15:12;;;;;;;12.47;7.87;;;;;;;16.23;63.91;101449.69;4989573;27;96965;-74
2023/10/07 09:18:05;;;;;;;9.40;7.70;;;;;;;16.24;64.02;101428.88;5015765;27;100049;-73
2023/10/07 09:21:09;;;;;;;11.57;7.40;;;;;;;16.24;63.74;101440.81;5005072;28;97120;-73
2023/10/07 09:23:44;;;;;;;9.27;7.30;;;;;;;16.28;63.92;101437.69;4974485;28;97224;-77
2023/10/07 09:26:21;;;;;;;12.20;7.97;;;;;;;16.31;63.48;101437.34;5004287;28;97323;-74
2023/10/07 09:28:51;;;;;;;12.33;7.87;;;;;;;16.32;63.48;101424.91;5019483;27;100671;-76
2023/10/07 09:31:19;;;;;;;12.10;8.70;;;;;;;16.33;63.53;101439.63;5020564;27;99465;-77
2023/10/07 09:33:49;;;;;;;10.53;7.93;;;;;;;16.30;63.67;101429.50;5004053;28;97518;-78
2023/10/07 09:40:19;;;;;;;12.47;7.00;;;;;;;16.38;63.35;101444.31;5002196;28;97247;-78
2023/10/07 09:42:04;;;;;;;11.30;7.00;;;;;;;16.37;63.51;101463.13;4986924;28;97494;-77
2023/10/07 09:44:31;;;;;;;14.33;8.07;;;;;;;16.41;63.61;101441.22;5003953;28;97338;-78
2023/10/07 09:47:03;;;;;;;8.00;6.73;;;;;;;16.44;63.54;101454.09;4996210;28;97204;-78
2023/10/07 09:49:30;;;;;;;11.30;7.97;;;;;;;16.47;63.70;101450.22;5003444;28;97146;-78
2023/10/07 09:52:16;;;;;;;11.63;8.07;;;;;;;16.51;63.60;101452.69;5018372;27;101087;-79
2023/10/07 09:55:07;;;;;;;10.77;7.70;;;;;;;16.54;63.52;101448.81;5004560;28;97078;-73
2023/10/07 09:57:55;;;;;;;10.07;7.33;;;;;;;16.54;63.78;101457.22;5003221;28;97137;-77
2023/10/07 10:00:38;;;;;;;12.60;7.27;;;;;;;16.56;63.49;101463.75;5003699;28;96995;-78
2023/10/07 10:03:30;;;;;;;9.03;7.10;;;;;;;16.57;63.66;101461.72;4997828;28;97611;-77
2023/10/07 10:05:56;;;;;;;8.60;6.90;;;;;;;16.56;63.38;101463.00;5003442;28;96947;-77
2023/10/07 10:08:47;;;;;;;11.43;7.60;;;;;;;16.56;63.56;101463.00;5018420;27;97438;-78
2023/10/07 10:11:30;;;;;;;9.40;7.70;;;;;;;16.56;63.48;101457.41;4997337;28;100335;-74
2023/10/07 10:17:00;;;;;;;9.33;7.67;;;;;;;16.59;63.63;101473.13;5002096;28;96855;-74
2023/10/07 10:20:12;;;;;;;7.70;6.90;;;;;;;16.60;63.58;101460.63;5003798;28;97073;-78
2023/10/07 10:22:24;;;;;;;14.37;7.50;;;;;;;16.60;63.47;101455.81;5000591;28;97691;-78
2023/10/07 10:24:57;;;;;;;11.73;8.30;;;;;;;16.65;63.68;101482.13;4999657;28;100520;-76
2023/10/07 10:27:25;;;;;;;10.27;7.47;;;;;;;16.68;63.49;101470.63;5002582;28;97455;-77
2023/10/07 10:30:05;;;;;;;10.30;7.47;;;;;;;16.77;63.56;101477.81;5003108;28;98742;-76
2023/10/07 10:32:36;;;;;;;9.57;7.63;;;;;;;16.81;63.52;101466.34;5002220;28;98099;-77
2023/10/07 10:35:06;;;;;;;12.37;8.27;;;;;;;16.85;63.70;101473.09;5003909;28;97819;-73
2023/10/07 10:37:32;;;;;;;16.47;8.07;;;;;;;16.85;63.58;101461.91;5004326;28;96718;-78
2023/10/07 10:40:05;;;;;;;13.07;8.70;;;;;;;16.86;63.51;101451.47;5004512;28;97125;-77
2023/10/07 10:42:47;;;;;;;11.13;7.50;;;;;;;16.88;63.90;101457.28;5018508;27;99182;-77
2023/10/07 10:45:26;;;;;;;10.20;7.37;;;;;;;16.89;64.04;101450.41;5004012;28;97523;-75
2023/10/07 10:47:53;;;;;;;11.10;7.23;;;;;;;16.92;63.71;101449.31;5007480;28;97063;-78
2023/10/07 10:50:23;;;;;;;15.33;8.50;;;;;;;16.95;63.86;101443.38;5008250;28;98308;-78
2023/10/07 10:52:54;;;;;;;10.10;7.77;;;;;;;17.03;64.11;101444.22;5006494;28;98074;-73
2023/10/07 10:55:24;;;;;;;11.23;7.73;;;;;;;17.11;63.81;101447.84;5001770;28;100197;-76
2023/10/07 10:57:53;;;;;;;16.67;8.90;;;;;;;17.21;63.82;101443.28;5005504;27;97179;-77
2023/10/07 11:00:19;;;;;;;8.20;7.17;;;;;;;17.25;63.59;101420.59;5008014;28;97531;-78
2023/10/07 11:02:46;;;;;;;7.47;6.77;;;;;;;17.35;63.57;101430.75;5012147;28;99660;-78
2023/10/07 11:05:12;;;;;;;9.87;7.57;;;;;;;17.40;63.65;101417.94;5006798;28;97185;-78
2023/10/07 11:07:39;;;;;;;9.07;7.60;;;;;;;17.45;63.49;101433.81;5007996;28;97088;-78
2023/10/07 11:10:08;;;;;;;11.40;7.07;;;;;;;17.45;63.44;101444.28;5008269;28;96827;-75
2023/10/07 11:12:33;;;;;;;9.60;7.03;;;;;;;17.47;63.35;101428.41;5005353;28;96821;-78
2023/10/07 11:15:13;;;;;;;16.60;7.30;;;;;;;17.52;63.28;101426.78;5009038;28;99152;-78
2023/10/07 11:17:41;;;;;;;11.30;6.63;;;;;;;17.56;63.19;101430.78;5007933;28;97205;-78
2023/10/07 11:20:09;;;;;;;7.33;6.07;;;;;;;17.60;63.15;101416.47;5008246;28;97114;-78
2023/10/07 11:22:38;;;;;;;8.00;6.60;;;;;;;17.60;63.07;101422.06;5007943;28;97874;-78
2023/10/07 11:25:06;;;;;;;7.63;6.63;;;;;;;17.62;62.94;101425.06;5007429;28;99416;-79
2023/10/07 11:27:32;;;;;;;8.17;6.30;;;;;;;17.63;62.90;101421.69;5010488;28;97409;-77
2023/10/07 11:30:11;;;;;;;6.77;6.07;;;;;;;17.64;62.98;101409.22;5000368;28;96941;-76
2023/10/07 11:32:39;;;;;;;9.57;6.43;;;;;;;17.66;62.81;101411.47;5009039;28;97952;-79
2023/10/07 11:35:19;;;;;;;11.17;6.13;;;;;;;17.65;62.80;101418.34;5003907;28;100304;-77
2023/10/07 11:37:57;;;;;;;5.83;4.97;;;;;;;17.65;62.81;101407.91;5008125;28;97053;-77
2023/10/07 11:40:23;;;;;;;7.00;5.17;;;;;;;17.66;62.71;101406.63;5010064;28;99402;-77
2023/10/07 11:42:49;;;;;;;5.93;4.23;;;;;;;17.69;62.62;101401.94;5007822;28;97862;-77
2023/10/07 11:45:16;;;;;;;6.80;5.30;;;;;;;17.69;62.68;101401.94;5007009;28;97213;-79
2023/10/07 11:47:42;;;;;;;6.90;5.70;;;;;;;17.71;62.69;101414.09;5008714;28;97441;-77
2023/10/07 11:50:08;;;;;;;6.10;5.00;;;;;;;17.69;62.53;101430.69;5009367;28;97129;-77
2023/10/07 11:52:37;;;;;;;5.93;4.37;;;;;;;17.74;62.46;101420.66;5010245;28;97120;-78
2023/10/07 11:55:07;;;;;;;7.37;4.40;;;;;;;17.77;62.48;101406.31;5008759;27;97672;-77
2023/10/07 11:57:34;;;;;;;5.03;4.50;;;;;;;17.79;62.42;101422.56;5009307;28;97066;-77
2023/10/07 11:59:59;;;;;;;8.10;4.90;;;;;;;17.74;62.41;101413.00;5010421;28;98012;-78
2023/10/07 12:02:24;;;;;;;6.07;3.93;;;;;;;17.81;62.47;101428.38;4999783;28;100310;-77
2023/10/07 12:04:51;;;;;;;7.53;4.70;;;;;;;17.82;62.52;101421.44;5008110;28;99013;-78
2023/10/07 12:07:17;;;;;;;7.03;4.37;;;;;;;17.83;62.31;101442.56;5001125;28;97574;-78
2023/10/07 12:09:48;;;;;;;9.20;4.20;;;;;;;17.83;62.44;101423.72;5009873;27;96949;-78
2023/10/07 12:12:14;;;;;;;4.60;3.77;;;;;;;17.82;62.43;101425.00;5007923;28;97490;-78
2023/10/07 12:14:40;;;;;;;5.13;3.67;;;;;;;17.83;62.31;101425.75;5011049;27;97010;-78
2023/10/07 12:17:07;;;;;;;7.53;4.27;;;;;;;17.80;62.56;101438.81;5008560;28;96965;-78
2023/10/07 12:19:34;;;;;;;6.10;4.10;;;;;;;17.82;62.51;101429.84;5008316;28;96856;-77
2023/10/07 12:21:59;;;;;;;5.23;3.63;;;;;;;17.82;62.57;101422.22;5022021;27;100313;-79
2023/10/07 12:24:26;;;;;;;6.20;3.97;;;;;;;17.82;62.65;101443.84;5007725;28;98946;-77
2023/10/07 12:26:51;;;;;;;5.53;3.60;;;;;;;17.84;62.50;101430.81;5009073;28;97441;-78
2023/10/07 12:29:18;;;;;;;5.73;4.10;;;;;;;17.86;62.32;101435.88;5007533;28;98450;-78
2023/10/07 12:31:44;;;;;;;10.67;5.47;;;;;;;17.92;62.38;101434.44;5007697;28;98092;-78